Metar/Speci

METEOROLOGICAL AERODROME REPORT
STASIUN METEOROLOGI HANG NADIM BATAM
ADDS - METARS form results

Aviation Digital Data Service (ADDS)

Output produced by METARs form (0644 UTC 21 September 2017)
found at http://aviationweather.gov/adds/metars/
 
METAR text: WIDD 210630Z 18006KT 9999 FEW014 30/20 Q1010 NOSIG
Conditions at: WIDD (HANG NADIM , ID) observed 0630 UTC 21 September 2017
Temperature: 30.0°C (86°F)
Dewpoint: 20.0°C (68°F) [RH = 55%]
Pressure (altimeter): 29.82 inches Hg (1010.0 mb)
Winds: from the S (180 degrees) at 7 MPH (6 knots; 3.1 m/s)
Visibility: 6 or more miles (10+ km)
Ceiling: at least 12,000 feet AGL
Clouds: few clouds at 1400 feet AGL
Weather: no significant weather observed at this time

Informasi METAR/SPECI dapat diakses juga di http://aviation.bmkg.go.id